sensor_id;sensor_type;location;lat;lon;timestamp;P1;durP1;ratioP1;P2;durP2;ratioP2
3415;SDS011;1721;51.238;9.562;2023-07-02T00:00:06;8.17;;;3.20;;
3415;SDS011;1721;51.238;9.562;2023-07-02T00:02:33;8.10;;;3.27;;
3415;SDS011;1721;51.238;9.562;2023-07-02T00:04:59;7.17;;;3.70;;
3415;SDS011;1721;51.238;9.562;2023-07-02T00:07:24;7.53;;;2.93;;
3415;SDS011;1721;51.238;9.562;2023-07-02T00:09:53;6.00;;;2.77;;
3415;SDS011;1721;51.238;9.562;2023-07-02T00:12:19;7.63;;;3.60;;
3415;SDS011;1721;51.238;9.562;2023-07-02T00:14:44;12.33;;;3.70;;
3415;SDS011;1721;51.238;9.562;2023-07-02T00:17:10;7.23;;;3.80;;
3415;SDS011;1721;51.238;9.562;2023-07-02T00:19:39;5.80;;;3.30;;
3415;SDS011;1721;51.238;9.562;2023-07-02T00:22:08;5.70;;;3.23;;
3415;SDS011;1721;51.238;9.562;2023-07-02T00:24:34;6.27;;;3.30;;
3415;SDS011;1721;51.238;9.562;2023-07-02T00:27:00;7.40;;;3.90;;
3415;SDS011;1721;51.238;9.562;2023-07-02T00:29:25;6.40;;;3.10;;
3415;SDS011;1721;51.238;9.562;2023-07-02T00:31:51;7.00;;;3.13;;
3415;SDS011;1721;51.238;9.562;2023-07-02T00:34:17;6.80;;;2.93;;
3415;SDS011;1721;51.238;9.562;2023-07-02T00:36:43;6.43;;;3.27;;
3415;SDS011;1721;51.238;9.562;2023-07-02T00:39:09;7.70;;;3.60;;
3415;SDS011;1721;51.238;9.562;2023-07-02T00:41:37;8.50;;;3.73;;
3415;SDS011;1721;51.238;9.562;2023-07-02T00:44:02;11.70;;;3.60;;
3415;SDS011;1721;51.238;9.562;2023-07-02T00:46:28;4.93;;;3.03;;
3415;SDS011;1721;51.238;9.562;2023-07-02T00:48:55;9.60;;;4.20;;
3415;SDS011;1721;51.238;9.562;2023-07-02T00:51:22;7.77;;;3.23;;
3415;SDS011;1721;51.238;9.562;2023-07-02T00:53:51;7.57;;;3.50;;
3415;SDS011;1721;51.238;9.562;2023-07-02T00:56:19;6.60;;;3.37;;
3415;SDS011;1721;51.238;9.562;2023-07-02T00:58:46;10.93;;;3.80;;
3415;SDS011;1721;51.238;9.562;2023-07-02T01:01:17;6.70;;;3.80;;
3415;SDS011;1721;51.238;9.562;2023-07-02T01:04:16;8.33;;;3.33;;
3415;SDS011;1721;51.238;9.562;2023-07-02T01:06:37;10.02;;;4.00;;
3415;SDS011;1721;51.238;9.562;2023-07-02T01:09:06;6.70;;;3.57;;
3415;SDS011;1721;51.238;9.562;2023-07-02T01:11:33;7.73;;;3.80;;
3415;SDS011;1721;51.238;9.562;2023-07-02T01:14:22;14.07;;;4.53;;
3415;SDS011;1721;51.238;9.562;2023-07-02T01:16:50;6.23;;;3.70;;
3415;SDS011;1721;51.238;9.562;2023-07-02T01:19:19;8.20;;;3.70;;
3415;SDS011;1721;51.238;9.562;2023-07-02T01:21:47;7.73;;;3.63;;
3415;SDS011;1721;51.238;9.562;2023-07-02T01:24:14;8.17;;;3.77;;
3415;SDS011;1721;51.238;9.562;2023-07-02T01:26:41;6.93;;;3.40;;
3415;SDS011;1721;51.238;9.562;2023-07-02T01:29:16;5.80;;;3.30;;
3415;SDS011;1721;51.238;9.562;2023-07-02T01:31:44;8.57;;;3.63;;
3415;SDS011;1721;51.238;9.562;2023-07-02T01:34:11;7.70;;;3.30;;
3415;SDS011;1721;51.238;9.562;2023-07-02T01:36:37;7.53;;;3.37;;
3415;SDS011;1721;51.238;9.562;2023-07-02T01:39:03;7.73;;;3.50;;
3415;SDS011;1721;51.238;9.562;2023-07-02T01:41:29;6.80;;;3.17;;
3415;SDS011;1721;51.238;9.562;2023-07-02T01:43:56;7.33;;;4.00;;
3415;SDS011;1721;51.238;9.562;2023-07-02T01:46:22;7.23;;;2.97;;
3415;SDS011;1721;51.238;9.562;2023-07-02T01:48:47;5.70;;;2.97;;
3415;SDS011;1721;51.238;9.562;2023-07-02T01:51:13;6.10;;;3.30;;
3415;SDS011;1721;51.238;9.562;2023-07-02T01:53:39;7.30;;;3.50;;
3415;SDS011;1721;51.238;9.562;2023-07-02T01:56:04;8.07;;;3.87;;
3415;SDS011;1721;51.238;9.562;2023-07-02T01:58:30;5.30;;;3.10;;
3415;SDS011;1721;51.238;9.562;2023-07-02T02:00:56;14.07;;;3.87;;
3415;SDS011;1721;51.238;9.562;2023-07-02T02:03:22;6.47;;;3.30;;
3415;SDS011;1721;51.238;9.562;2023-07-02T02:05:47;6.23;;;3.37;;
3415;SDS011;1721;51.238;9.562;2023-07-02T02:08:13;6.77;;;3.20;;
3415;SDS011;1721;51.238;9.562;2023-07-02T02:10:38;5.70;;;3.00;;
3415;SDS011;1721;51.238;9.562;2023-07-02T02:13:04;9.00;;;2.80;;
3415;SDS011;1721;51.238;9.562;2023-07-02T02:15:30;6.87;;;3.80;;
3415;SDS011;1721;51.238;9.562;2023-07-02T02:17:55;8.60;;;3.37;;
3415;SDS011;1721;51.238;9.562;2023-07-02T02:20:21;9.20;;;3.10;;
3415;SDS011;1721;51.238;9.562;2023-07-02T02:22:47;6.67;;;3.70;;
3415;SDS011;1721;51.238;9.562;2023-07-02T02:25:12;7.90;;;3.70;;
3415;SDS011;1721;51.238;9.562;2023-07-02T02:27:38;6.83;;;3.53;;
3415;SDS011;1721;51.238;9.562;2023-07-02T02:30:04;6.27;;;3.40;;
3415;SDS011;1721;51.238;9.562;2023-07-02T02:32:30;5.23;;;2.93;;
3415;SDS011;1721;51.238;9.562;2023-07-02T02:34:55;6.90;;;3.30;;
3415;SDS011;1721;51.238;9.562;2023-07-02T02:37:21;8.90;;;3.27;;
3415;SDS011;1721;51.238;9.562;2023-07-02T02:39:48;5.97;;;3.40;;
3415;SDS011;1721;51.238;9.562;2023-07-02T02:42:13;6.67;;;3.20;;
3415;SDS011;1721;51.238;9.562;2023-07-02T02:44:39;6.43;;;3.70;;
3415;SDS011;1721;51.238;9.562;2023-07-02T02:47:04;7.70;;;3.50;;
3415;SDS011;1721;51.238;9.562;2023-07-02T02:49:30;7.07;;;3.27;;
3415;SDS011;1721;51.238;9.562;2023-07-02T02:51:56;7.00;;;3.47;;
3415;SDS011;1721;51.238;9.562;2023-07-02T02:54:22;8.00;;;3.30;;
3415;SDS011;1721;51.238;9.562;2023-07-02T02:56:47;6.30;;;3.30;;
3415;SDS011;1721;51.238;9.562;2023-07-02T02:59:13;6.80;;;4.27;;
3415;SDS011;1721;51.238;9.562;2023-07-02T03:01:38;39.80;;;18.23;;
3415;SDS011;1721;51.238;9.562;2023-07-02T03:04:04;12.40;;;5.27;;
3415;SDS011;1721;51.238;9.562;2023-07-02T03:06:33;8.93;;;3.70;;
3415;SDS011;1721;51.238;9.562;2023-07-02T03:08:59;7.77;;;3.60;;
3415;SDS011;1721;51.238;9.562;2023-07-02T03:11:24;9.30;;;3.43;;
3415;SDS011;1721;51.238;9.562;2023-07-02T03:13:50;7.17;;;3.13;;
3415;SDS011;1721;51.238;9.562;2023-07-02T03:16:15;8.07;;;3.10;;
3415;SDS011;1721;51.238;9.562;2023-07-02T03:18:41;6.03;;;3.23;;
3415;SDS011;1721;51.238;9.562;2023-07-02T03:21:07;6.90;;;3.37;;
3415;SDS011;1721;51.238;9.562;2023-07-02T03:23:32;10.97;;;4.03;;
3415;SDS011;1721;51.238;9.562;2023-07-02T03:25:58;6.67;;;2.73;;
3415;SDS011;1721;51.238;9.562;2023-07-02T03:28:23;5.53;;;2.70;;
3415;SDS011;1721;51.238;9.562;2023-07-02T03:30:49;5.87;;;3.00;;
3415;SDS011;1721;51.238;9.562;2023-07-02T03:33:14;5.37;;;3.40;;
3415;SDS011;1721;51.238;9.562;2023-07-02T03:35:40;9.03;;;3.80;;
3415;SDS011;1721;51.238;9.562;2023-07-02T03:38:05;5.83;;;3.47;;
3415;SDS011;1721;51.238;9.562;2023-07-02T03:40:31;8.93;;;4.73;;
3415;SDS011;1721;51.238;9.562;2023-07-02T03:42:57;8.20;;;3.70;;
3415;SDS011;1721;51.238;9.562;2023-07-02T03:45:22;7.27;;;4.37;;
3415;SDS011;1721;51.238;9.562;2023-07-02T03:47:48;8.63;;;4.60;;
3415;SDS011;1721;51.238;9.562;2023-07-02T03:50:13;6.30;;;3.40;;
3415;SDS011;1721;51.238;9.562;2023-07-02T03:52:39;8.57;;;4.40;;
3415;SDS011;1721;51.238;9.562;2023-07-02T03:55:04;7.67;;;4.13;;
3415;SDS011;1721;51.238;9.562;2023-07-02T03:57:30;10.70;;;4.38;;
3415;SDS011;1721;51.238;9.562;2023-07-02T03:59:56;15.63;;;4.70;;
3415;SDS011;1721;51.238;9.562;2023-07-02T04:02:22;8.40;;;3.83;;
3415;SDS011;1721;51.238;9.562;2023-07-02T04:04:47;8.77;;;4.37;;
3415;SDS011;1721;51.238;9.562;2023-07-02T04:07:13;9.43;;;4.20;;
3415;SDS011;1721;51.238;9.562;2023-07-02T04:09:38;6.83;;;3.70;;
3415;SDS011;1721;51.238;9.562;2023-07-02T04:12:04;6.90;;;3.80;;
3415;SDS011;1721;51.238;9.562;2023-07-02T04:14:30;9.63;;;4.40;;
3415;SDS011;1721;51.238;9.562;2023-07-02T04:16:55;8.50;;;4.87;;
3415;SDS011;1721;51.238;9.562;2023-07-02T04:19:21;10.90;;;4.37;;
3415;SDS011;1721;51.238;9.562;2023-07-02T04:21:46;8.77;;;4.27;;
3415;SDS011;1721;51.238;9.562;2023-07-02T04:24:12;15.40;;;5.23;;
3415;SDS011;1721;51.238;9.562;2023-07-02T04:26:38;9.37;;;5.17;;
3415;SDS011;1721;51.238;9.562;2023-07-02T04:29:07;11.32;;;5.30;;
3415;SDS011;1721;51.238;9.562;2023-07-02T04:31:34;8.30;;;4.90;;
3415;SDS011;1721;51.238;9.562;2023-07-02T04:33:59;11.03;;;5.17;;
3415;SDS011;1721;51.238;9.562;2023-07-02T04:36:25;8.63;;;4.80;;
3415;SDS011;1721;51.238;9.562;2023-07-02T04:38:50;9.67;;;4.60;;
3415;SDS011;1721;51.238;9.562;2023-07-02T04:41:17;8.23;;;4.67;;
3415;SDS011;1721;51.238;9.562;2023-07-02T04:43:43;8.87;;;5.07;;
3415;SDS011;1721;51.238;9.562;2023-07-02T04:46:10;9.07;;;4.47;;
3415;SDS011;1721;51.238;9.562;2023-07-02T04:48:37;9.82;;;5.40;;
3415;SDS011;1721;51.238;9.562;2023-07-02T04:51:03;9.63;;;4.60;;
3415;SDS011;1721;51.238;9.562;2023-07-02T04:53:28;18.90;;;4.80;;
3415;SDS011;1721;51.238;9.562;2023-07-02T04:55:54;12.33;;;5.60;;
3415;SDS011;1721;51.238;9.562;2023-07-02T04:58:21;9.13;;;5.35;;
3415;SDS011;1721;51.238;9.562;2023-07-02T05:00:47;11.73;;;5.90;;
3415;SDS011;1721;51.238;9.562;2023-07-02T05:03:13;10.17;;;5.30;;
3415;SDS011;1721;51.238;9.562;2023-07-02T05:05:38;10.43;;;5.87;;
3415;SDS011;1721;51.238;9.562;2023-07-02T05:08:04;16.80;;;6.00;;
3415;SDS011;1721;51.238;9.562;2023-07-02T05:10:29;9.30;;;5.37;;
3415;SDS011;1721;51.238;9.562;2023-07-02T05:12:55;9.40;;;4.90;;
3415;SDS011;1721;51.238;9.562;2023-07-02T05:15:20;27.63;;;6.33;;
3415;SDS011;1721;51.238;9.562;2023-07-02T05:17:46;11.60;;;6.60;;
3415;SDS011;1721;51.238;9.562;2023-07-02T05:20:12;18.50;;;6.03;;
3415;SDS011;1721;51.238;9.562;2023-07-02T05:22:37;15.03;;;5.40;;
3415;SDS011;1721;51.238;9.562;2023-07-02T05:25:03;16.80;;;5.43;;
3415;SDS011;1721;51.238;9.562;2023-07-02T05:27:29;10.13;;;5.97;;
3415;SDS011;1721;51.238;9.562;2023-07-02T05:29:54;13.40;;;5.90;;
3415;SDS011;1721;51.238;9.562;2023-07-02T05:32:20;18.43;;;6.60;;
3415;SDS011;1721;51.238;9.562;2023-07-02T05:34:45;11.37;;;6.63;;
3415;SDS011;1721;51.238;9.562;2023-07-02T05:37:11;9.80;;;5.60;;
3415;SDS011;1721;51.238;9.562;2023-07-02T05:39:36;13.10;;;6.77;;
3415;SDS011;1721;51.238;9.562;2023-07-02T05:42:03;11.57;;;6.60;;
3415;SDS011;1721;51.238;9.562;2023-07-02T05:44:29;13.27;;;6.43;;
3415;SDS011;1721;51.238;9.562;2023-07-02T05:46:54;10.23;;;5.77;;
3415;SDS011;1721;51.238;9.562;2023-07-02T05:49:20;19.47;;;7.50;;
3415;SDS011;1721;51.238;9.562;2023-07-02T05:51:45;12.73;;;7.00;;
3415;SDS011;1721;51.238;9.562;2023-07-02T05:54:11;11.60;;;6.00;;
3415;SDS011;1721;51.238;9.562;2023-07-02T05:56:37;11.30;;;6.47;;
3415;SDS011;1721;51.238;9.562;2023-07-02T05:59:02;15.57;;;5.80;;
3415;SDS011;1721;51.238;9.562;2023-07-02T06:01:28;12.37;;;6.83;;
3415;SDS011;1721;51.238;9.562;2023-07-02T06:03:53;13.47;;;6.80;;
3415;SDS011;1721;51.238;9.562;2023-07-02T06:06:20;14.83;;;6.77;;
3415;SDS011;1721;51.238;9.562;2023-07-02T06:08:48;13.93;;;6.90;;
3415;SDS011;1721;51.238;9.562;2023-07-02T06:11:14;15.20;;;8.07;;
3415;SDS011;1721;51.238;9.562;2023-07-02T06:13:40;14.03;;;6.73;;
3415;SDS011;1721;51.238;9.562;2023-07-02T06:16:05;14.50;;;7.40;;
3415;SDS011;1721;51.238;9.562;2023-07-02T06:18:31;13.50;;;7.37;;
3415;SDS011;1721;51.238;9.562;2023-07-02T06:20:56;15.10;;;7.20;;
3415;SDS011;1721;51.238;9.562;2023-07-02T06:23:23;10.63;;;6.43;;
3415;SDS011;1721;51.238;9.562;2023-07-02T06:25:49;14.33;;;6.77;;
3415;SDS011;1721;51.238;9.562;2023-07-02T06:28:18;12.90;;;6.73;;
3415;SDS011;1721;51.238;9.562;2023-07-02T06:30:44;13.00;;;6.33;;
3415;SDS011;1721;51.238;9.562;2023-07-02T06:33:09;12.60;;;6.10;;
3415;SDS011;1721;51.238;9.562;2023-07-02T06:35:35;12.87;;;6.50;;
3415;SDS011;1721;51.238;9.562;2023-07-02T06:38:00;12.73;;;6.87;;
3415;SDS011;1721;51.238;9.562;2023-07-02T06:40:26;14.53;;;6.80;;
3415;SDS011;1721;51.238;9.562;2023-07-02T06:42:51;12.03;;;6.43;;
3415;SDS011;1721;51.238;9.562;2023-07-02T06:45:17;12.30;;;6.50;;
3415;SDS011;1721;51.238;9.562;2023-07-02T06:47:43;13.30;;;7.00;;
3415;SDS011;1721;51.238;9.562;2023-07-02T06:50:08;17.77;;;6.70;;
3415;SDS011;1721;51.238;9.562;2023-07-02T06:52:34;15.03;;;7.10;;
3415;SDS011;1721;51.238;9.562;2023-07-02T06:55:01;17.03;;;5.87;;
3415;SDS011;1721;51.238;9.562;2023-07-02T06:57:28;11.47;;;6.87;;
3415;SDS011;1721;51.238;9.562;2023-07-02T06:59:57;17.00;;;6.47;;
3415;SDS011;1721;51.238;9.562;2023-07-02T07:02:24;14.43;;;5.70;;
3415;SDS011;1721;51.238;9.562;2023-07-02T07:04:49;11.63;;;6.80;;
3415;SDS011;1721;51.238;9.562;2023-07-02T07:07:15;15.10;;;7.37;;
3415;SDS011;1721;51.238;9.562;2023-07-02T07:09:40;13.97;;;6.73;;
3415;SDS011;1721;51.238;9.562;2023-07-02T07:12:06;15.17;;;6.47;;
3415;SDS011;1721;51.238;9.562;2023-07-02T07:14:32;18.80;;;7.47;;
3415;SDS011;1721;51.238;9.562;2023-07-02T07:16:57;16.27;;;7.47;;
3415;SDS011;1721;51.238;9.562;2023-07-02T07:19:23;14.50;;;7.23;;
3415;SDS011;1721;51.238;9.562;2023-07-02T07:21:48;17.90;;;6.57;;
3415;SDS011;1721;51.238;9.562;2023-07-02T07:24:14;15.40;;;6.80;;
3415;SDS011;1721;51.238;9.562;2023-07-02T07:26:39;18.70;;;7.37;;
3415;SDS011;1721;51.238;9.562;2023-07-02T07:29:05;17.27;;;7.43;;
3415;SDS011;1721;51.238;9.562;2023-07-02T07:31:30;16.07;;;7.50;;
3415;SDS011;1721;51.238;9.562;2023-07-02T07:33:56;22.00;;;7.60;;
3415;SDS011;1721;51.238;9.562;2023-07-02T07:36:21;16.37;;;7.00;;
3415;SDS011;1721;51.238;9.562;2023-07-02T07:38:47;16.80;;;7.80;;
3415;SDS011;1721;51.238;9.562;2023-07-02T07:41:13;21.47;;;6.90;;
3415;SDS011;1721;51.238;9.562;2023-07-02T07:43:38;16.90;;;7.20;;
3415;SDS011;1721;51.238;9.562;2023-07-02T07:46:04;18.33;;;7.87;;
3415;SDS011;1721;51.238;9.562;2023-07-02T07:48:29;19.53;;;7.50;;
3415;SDS011;1721;51.238;9.562;2023-07-02T07:50:55;18.90;;;7.73;;
3415;SDS011;1721;51.238;9.562;2023-07-02T07:53:20;18.63;;;6.77;;
3415;SDS011;1721;51.238;9.562;2023-07-02T07:55:46;25.13;;;7.43;;
3415;SDS011;1721;51.238;9.562;2023-07-02T07:58:11;18.63;;;7.57;;
3415;SDS011;1721;51.238;9.562;2023-07-02T08:00:37;18.03;;;7.10;;
3415;SDS011;1721;51.238;9.562;2023-07-02T08:03:03;20.73;;;7.63;;
3415;SDS011;1721;51.238;9.562;2023-07-02T08:05:28;15.63;;;6.77;;
3415;SDS011;1721;51.238;9.562;2023-07-02T08:07:55;19.30;;;8.17;;
3415;SDS011;1721;51.238;9.562;2023-07-02T08:10:20;18.10;;;7.37;;
3415;SDS011;1721;51.238;9.562;2023-07-02T08:12:46;16.97;;;7.40;;
3415;SDS011;1721;51.238;9.562;2023-07-02T08:15:13;18.47;;;8.47;;
3415;SDS011;1721;51.238;9.562;2023-07-02T08:17:39;20.20;;;8.33;;
3415;SDS011;1721;51.238;9.562;2023-07-02T08:20:04;16.63;;;7.83;;
3415;SDS011;1721;51.238;9.562;2023-07-02T08:22:34;18.93;;;8.30;;
3415;SDS011;1721;51.238;9.562;2023-07-02T08:25:00;15.80;;;7.00;;
3415;SDS011;1721;51.238;9.562;2023-07-02T08:27:26;20.37;;;7.97;;
3415;SDS011;1721;51.238;9.562;2023-07-02T08:29:52;16.03;;;6.97;;
3415;SDS011;1721;51.238;9.562;2023-07-02T08:32:17;17.40;;;7.40;;
3415;SDS011;1721;51.238;9.562;2023-07-02T08:34:43;15.27;;;6.30;;
3415;SDS011;1721;51.238;9.562;2023-07-02T08:37:08;20.23;;;7.50;;
3415;SDS011;1721;51.238;9.562;2023-07-02T08:39:34;28.67;;;7.57;;
3415;SDS011;1721;51.238;9.562;2023-07-02T08:42:01;13.93;;;6.53;;
3415;SDS011;1721;51.238;9.562;2023-07-02T08:44:26;13.83;;;6.80;;
3415;SDS011;1721;51.238;9.562;2023-07-02T08:46:52;13.37;;;5.97;;
3415;SDS011;1721;51.238;9.562;2023-07-02T08:49:21;14.67;;;6.20;;
3415;SDS011;1721;51.238;9.562;2023-07-02T08:51:46;12.17;;;6.00;;
3415;SDS011;1721;51.238;9.562;2023-07-02T08:54:12;19.40;;;6.90;;
3415;SDS011;1721;51.238;9.562;2023-07-02T08:56:39;13.50;;;6.20;;
3415;SDS011;1721;51.238;9.562;2023-07-02T08:59:08;17.63;;;8.03;;
3415;SDS011;1721;51.238;9.562;2023-07-02T09:01:47;19.33;;;7.03;;
3415;SDS011;1721;51.238;9.562;2023-07-02T09:04:23;25.17;;;8.00;;
3415;SDS011;1721;51.238;9.562;2023-07-02T09:09:31;23.07;;;7.43;;
3415;SDS011;1721;51.238;9.562;2023-07-02T09:11:57;15.60;;;6.90;;
3415;SDS011;1721;51.238;9.562;2023-07-02T09:14:29;18.33;;;6.93;;
3415;SDS011;1721;51.238;9.562;2023-07-02T09:17:05;16.53;;;7.13;;
3415;SDS011;1721;51.238;9.562;2023-07-02T09:19:34;18.50;;;7.17;;
3415;SDS011;1721;51.238;9.562;2023-07-02T09:22:00;19.33;;;7.00;;
3415;SDS011;1721;51.238;9.562;2023-07-02T09:24:27;16.87;;;7.10;;
3415;SDS011;1721;51.238;9.562;2023-07-02T09:26:57;19.07;;;6.50;;
3415;SDS011;1721;51.238;9.562;2023-07-02T09:29:25;15.80;;;6.73;;
3415;SDS011;1721;51.238;9.562;2023-07-02T09:31:53;16.47;;;5.97;;
3415;SDS011;1721;51.238;9.562;2023-07-02T09:34:20;18.20;;;6.43;;
3415;SDS011;1721;51.238;9.562;2023-07-02T09:36:55;16.10;;;6.60;;
3415;SDS011;1721;51.238;9.562;2023-07-02T09:39:31;16.40;;;6.80;;
3415;SDS011;1721;51.238;9.562;2023-07-02T09:41:58;16.30;;;7.20;;
3415;SDS011;1721;51.238;9.562;2023-07-02T09:44:28;22.03;;;7.50;;
3415;SDS011;1721;51.238;9.562;2023-07-02T09:47:00;18.83;;;7.37;;
3415;SDS011;1721;51.238;9.562;2023-07-02T09:49:29;18.37;;;6.90;;
3415;SDS011;1721;51.238;9.562;2023-07-02T09:51:57;19.70;;;6.50;;
3415;SDS011;1721;51.238;9.562;2023-07-02T09:54:34;15.50;;;6.03;;
3415;SDS011;1721;51.238;9.562;2023-07-02T09:57:00;17.23;;;6.80;;
3415;SDS011;1721;51.238;9.562;2023-07-02T09:59:26;14.50;;;6.67;;
3415;SDS011;1721;51.238;9.562;2023-07-02T10:01:53;22.60;;;7.10;;
3415;SDS011;1721;51.238;9.562;2023-07-02T10:04:20;16.30;;;6.97;;
3415;SDS011;1721;51.238;9.562;2023-07-02T10:06:52;20.47;;;7.00;;
3415;SDS011;1721;51.238;9.562;2023-07-02T10:09:20;22.40;;;7.37;;
3415;SDS011;1721;51.238;9.562;2023-07-02T10:12:15;19.30;;;7.27;;
3415;SDS011;1721;51.238;9.562;2023-07-02T10:14:44;19.40;;;6.80;;
3415;SDS011;1721;51.238;9.562;2023-07-02T10:17:30;16.00;;;6.03;;
3415;SDS011;1721;51.238;9.562;2023-07-02T10:19:56;15.63;;;6.40;;
3415;SDS011;1721;51.238;9.562;2023-07-02T10:22:24;14.60;;;6.43;;
3415;SDS011;1721;51.238;9.562;2023-07-02T10:27:32;13.93;;;6.20;;
3415;SDS011;1721;51.238;9.562;2023-07-02T10:30:03;16.60;;;6.43;;
3415;SDS011;1721;51.238;9.562;2023-07-02T10:32:30;16.73;;;6.23;;
3415;SDS011;1721;51.238;9.562;2023-07-02T10:34:56;13.70;;;6.60;;
3415;SDS011;1721;51.238;9.562;2023-07-02T10:37:23;17.70;;;7.90;;
3415;SDS011;1721;51.238;9.562;2023-07-02T10:39:49;25.90;;;6.90;;
3415;SDS011;1721;51.238;9.562;2023-07-02T10:42:14;18.00;;;6.80;;
3415;SDS011;1721;51.238;9.562;2023-07-02T10:44:47;18.00;;;6.60;;
3415;SDS011;1721;51.238;9.562;2023-07-02T10:47:14;17.10;;;6.53;;
3415;SDS011;1721;51.238;9.562;2023-07-02T10:49:40;17.13;;;6.60;;
3415;SDS011;1721;51.238;9.562;2023-07-02T10:52:05;17.57;;;5.53;;
3415;SDS011;1721;51.238;9.562;2023-07-02T10:54:52;15.47;;;6.47;;
3415;SDS011;1721;51.238;9.562;2023-07-02T10:57:18;24.30;;;7.13;;
3415;SDS011;1721;51.238;9.562;2023-07-02T10:59:48;19.13;;;6.87;;
3415;SDS011;1721;51.238;9.562;2023-07-02T11:02:14;17.33;;;7.00;;
3415;SDS011;1721;51.238;9.562;2023-07-02T11:04:40;22.27;;;6.83;;
3415;SDS011;1721;51.238;9.562;2023-07-02T11:07:06;20.40;;;6.40;;
3415;SDS011;1721;51.238;9.562;2023-07-02T11:09:32;15.63;;;6.40;;
3415;SDS011;1721;51.238;9.562;2023-07-02T11:11:58;18.83;;;7.97;;
3415;SDS011;1721;51.238;9.562;2023-07-02T11:16:54;26.57;;;6.23;;
3415;SDS011;1721;51.238;9.562;2023-07-02T11:19:20;15.80;;;5.90;;
3415;SDS011;1721;51.238;9.562;2023-07-02T11:21:52;20.40;;;7.40;;
3415;SDS011;1721;51.238;9.562;2023-07-02T11:24:34;13.97;;;6.43;;
3415;SDS011;1721;51.238;9.562;2023-07-02T11:27:01;17.43;;;6.53;;
3415;SDS011;1721;51.238;9.562;2023-07-02T11:29:28;22.93;;;7.20;;
3415;SDS011;1721;51.238;9.562;2023-07-02T11:32:10;19.53;;;7.07;;
3415;SDS011;1721;51.238;9.562;2023-07-02T11:34:37;17.67;;;6.73;;
3415;SDS011;1721;51.238;9.562;2023-07-02T11:37:03;21.60;;;6.20;;
3415;SDS011;1721;51.238;9.562;2023-07-02T11:39:30;17.10;;;7.03;;
3415;SDS011;1721;51.238;9.562;2023-07-02T11:41:56;16.70;;;6.83;;
3415;SDS011;1721;51.238;9.562;2023-07-02T11:44:21;15.07;;;7.10;;
3415;SDS011;1721;51.238;9.562;2023-07-02T11:46:47;18.90;;;8.03;;
3415;SDS011;1721;51.238;9.562;2023-07-02T11:49:13;17.50;;;6.50;;
3415;SDS011;1721;51.238;9.562;2023-07-02T11:51:40;16.57;;;7.43;;
3415;SDS011;1721;51.238;9.562;2023-07-02T11:54:11;14.00;;;6.20;;
3415;SDS011;1721;51.238;9.562;2023-07-02T11:56:37;22.10;;;7.80;;
3415;SDS011;1721;51.238;9.562;2023-07-02T11:59:03;20.10;;;7.40;;
3415;SDS011;1721;51.238;9.562;2023-07-02T12:01:28;26.87;;;8.63;;
3415;SDS011;1721;51.238;9.562;2023-07-02T12:03:54;18.53;;;8.20;;
3415;SDS011;1721;51.238;9.562;2023-07-02T12:06:20;22.57;;;7.80;;
3415;SDS011;1721;51.238;9.562;2023-07-02T12:08:45;19.47;;;7.70;;
3415;SDS011;1721;51.238;9.562;2023-07-02T12:11:11;16.60;;;6.90;;
3415;SDS011;1721;51.238;9.562;2023-07-02T12:13:36;19.77;;;7.40;;
3415;SDS011;1721;51.238;9.562;2023-07-02T12:16:02;20.23;;;7.57;;
3415;SDS011;1721;51.238;9.562;2023-07-02T12:18:28;16.80;;;6.40;;
3415;SDS011;1721;51.238;9.562;2023-07-02T12:20:53;16.70;;;7.40;;
3415;SDS011;1721;51.238;9.562;2023-07-02T12:23:19;17.53;;;6.03;;
3415;SDS011;1721;51.238;9.562;2023-07-02T12:25:45;19.17;;;7.60;;
3415;SDS011;1721;51.238;9.562;2023-07-02T12:28:11;16.10;;;7.57;;
3415;SDS011;1721;51.238;9.562;2023-07-02T12:30:36;18.97;;;7.83;;
3415;SDS011;1721;51.238;9.562;2023-07-02T12:33:02;21.30;;;7.50;;
3415;SDS011;1721;51.238;9.562;2023-07-02T12:35:27;19.43;;;7.80;;
3415;SDS011;1721;51.238;9.562;2023-07-02T12:37:53;19.77;;;7.87;;
3415;SDS011;1721;51.238;9.562;2023-07-02T12:40:19;20.23;;;7.37;;
3415;SDS011;1721;51.238;9.562;2023-07-02T12:42:45;23.70;;;6.60;;
3415;SDS011;1721;51.238;9.562;2023-07-02T12:45:12;18.00;;;7.40;;
3415;SDS011;1721;51.238;9.562;2023-07-02T12:47:43;21.80;;;8.30;;
3415;SDS011;1721;51.238;9.562;2023-07-02T12:50:09;19.63;;;7.90;;
3415;SDS011;1721;51.238;9.562;2023-07-02T12:52:35;20.70;;;8.30;;
3415;SDS011;1721;51.238;9.562;2023-07-02T12:55:01;17.47;;;7.27;;
3415;SDS011;1721;51.238;9.562;2023-07-02T12:57:27;24.10;;;7.93;;
3415;SDS011;1721;51.238;9.562;2023-07-02T12:59:53;18.67;;;8.20;;
3415;SDS011;1721;51.238;9.562;2023-07-02T13:02:20;20.63;;;8.33;;
3415;SDS011;1721;51.238;9.562;2023-07-02T13:04:46;19.63;;;7.60;;
3415;SDS011;1721;51.238;9.562;2023-07-02T13:07:12;21.67;;;7.77;;
3415;SDS011;1721;51.238;9.562;2023-07-02T13:09:37;20.90;;;8.60;;
3415;SDS011;1721;51.238;9.562;2023-07-02T13:12:03;21.97;;;8.10;;
3415;SDS011;1721;51.238;9.562;2023-07-02T13:14:29;20.10;;;6.13;;
3415;SDS011;1721;51.238;9.562;2023-07-02T13:16:55;16.23;;;7.43;;
3415;SDS011;1721;51.238;9.562;2023-07-02T13:19:20;20.83;;;7.37;;
3415;SDS011;1721;51.238;9.562;2023-07-02T13:21:46;14.23;;;6.40;;
3415;SDS011;1721;51.238;9.562;2023-07-02T13:24:11;16.97;;;7.53;;
3415;SDS011;1721;51.238;9.562;2023-07-02T13:26:37;18.40;;;8.03;;
3415;SDS011;1721;51.238;9.562;2023-07-02T13:29:03;24.63;;;7.27;;
3415;SDS011;1721;51.238;9.562;2023-07-02T13:31:28;24.53;;;8.40;;
3415;SDS011;1721;51.238;9.562;2023-07-02T13:33:54;17.73;;;7.70;;
3415;SDS011;1721;51.238;9.562;2023-07-02T13:36:20;20.80;;;7.00;;
3415;SDS011;1721;51.238;9.562;2023-07-02T13:38:45;19.40;;;6.70;;
3415;SDS011;1721;51.238;9.562;2023-07-02T13:41:11;18.03;;;6.70;;
3415;SDS011;1721;51.238;9.562;2023-07-02T13:43:36;21.33;;;8.27;;
3415;SDS011;1721;51.238;9.562;2023-07-02T13:46:02;15.17;;;7.27;;
3415;SDS011;1721;51.238;9.562;2023-07-02T13:48:28;22.63;;;8.00;;
3415;SDS011;1721;51.238;9.562;2023-07-02T13:50:53;19.47;;;7.50;;
3415;SDS011;1721;51.238;9.562;2023-07-02T13:53:19;19.53;;;7.20;;
3415;SDS011;1721;51.238;9.562;2023-07-02T13:55:45;21.47;;;7.23;;
3415;SDS011;1721;51.238;9.562;2023-07-02T13:58:11;19.73;;;7.53;;
3415;SDS011;1721;51.238;9.562;2023-07-02T14:00:36;17.10;;;8.47;;
3415;SDS011;1721;51.238;9.562;2023-07-02T14:03:02;18.63;;;7.90;;
3415;SDS011;1721;51.238;9.562;2023-07-02T14:05:28;15.60;;;6.60;;
3415;SDS011;1721;51.238;9.562;2023-07-02T14:07:54;17.30;;;6.87;;
3415;SDS011;1721;51.238;9.562;2023-07-02T14:10:20;23.57;;;8.17;;
3415;SDS011;1721;51.238;9.562;2023-07-02T14:12:45;18.73;;;7.30;;
3415;SDS011;1721;51.238;9.562;2023-07-02T14:15:11;19.17;;;6.80;;
3415;SDS011;1721;51.238;9.562;2023-07-02T14:17:37;18.67;;;7.50;;
3415;SDS011;1721;51.238;9.562;2023-07-02T14:20:03;23.63;;;8.53;;
3415;SDS011;1721;51.238;9.562;2023-07-02T14:22:31;18.90;;;7.10;;
3415;SDS011;1721;51.238;9.562;2023-07-02T14:24:56;25.40;;;7.87;;
3415;SDS011;1721;51.238;9.562;2023-07-02T14:27:22;22.80;;;7.43;;
3415;SDS011;1721;51.238;9.562;2023-07-02T14:29:48;24.37;;;8.33;;
3415;SDS011;1721;51.238;9.562;2023-07-02T14:32:13;18.97;;;8.10;;
3415;SDS011;1721;51.238;9.562;2023-07-02T14:34:39;22.20;;;7.43;;
3415;SDS011;1721;51.238;9.562;2023-07-02T14:37:05;24.87;;;8.80;;
3415;SDS011;1721;51.238;9.562;2023-07-02T14:39:31;18.70;;;8.70;;
3415;SDS011;1721;51.238;9.562;2023-07-02T14:41:57;22.27;;;9.03;;
3415;SDS011;1721;51.238;9.562;2023-07-02T14:44:24;22.10;;;8.57;;
3415;SDS011;1721;51.238;9.562;2023-07-02T14:46:50;23.70;;;8.40;;
3415;SDS011;1721;51.238;9.562;2023-07-02T14:49:16;23.27;;;7.63;;
3415;SDS011;1721;51.238;9.562;2023-07-02T14:51:41;21.30;;;7.60;;
3415;SDS011;1721;51.238;9.562;2023-07-02T14:54:07;22.03;;;9.30;;
3415;SDS011;1721;51.238;9.562;2023-07-02T14:56:33;16.67;;;7.40;;
3415;SDS011;1721;51.238;9.562;2023-07-02T14:59:01;26.73;;;8.60;;
3415;SDS011;1721;51.238;9.562;2023-07-02T15:01:27;25.63;;;8.10;;
3415;SDS011;1721;51.238;9.562;2023-07-02T15:03:53;18.37;;;8.07;;
3415;SDS011;1721;51.238;9.562;2023-07-02T15:06:19;18.90;;;8.63;;
3415;SDS011;1721;51.238;9.562;2023-07-02T15:08:45;20.50;;;8.23;;